createdAt,value
2017-11-27T00:01:43.824Z,100816.77
2017-11-27T00:04:13.021Z,100814.59
2017-11-27T00:06:42.233Z,100810.45
2017-11-27T00:09:12.277Z,100804.67
2017-11-27T00:11:41.524Z,100810.42
2017-11-27T00:14:11.510Z,100803.33
2017-11-27T00:16:40.704Z,100802.66
2017-11-27T00:19:09.920Z,100803.86
2017-11-27T00:21:39.881Z,100803.05
2017-11-27T00:24:09.131Z,100787.05
2017-11-27T00:26:38.375Z,100784.09
2017-11-27T00:29:08.355Z,100778.98
2017-11-27T00:31:38.328Z,100773.31
2017-11-27T00:34:07.555Z,100782.22
2017-11-27T00:36:37.567Z,100779.13
2017-11-27T00:39:06.790Z,100780.73
2017-11-27T00:41:36.792Z,100782.08
2017-11-27T00:44:06.024Z,100781.25
2017-11-27T00:46:35.270Z,100768.09
2017-11-27T00:49:04.470Z,100779.91
2017-11-27T00:51:33.689Z,100779.75
2017-11-27T00:54:03.660Z,100777.06
2017-11-27T00:56:32.862Z,100777.35
2017-11-27T00:59:02.044Z,100778.28
2017-11-27T01:01:31.329Z,100776.27
2017-11-27T01:04:00.557Z,100774.25
2017-11-27T01:06:29.767Z,100762.38
2017-11-27T01:08:58.958Z,100769.67
2017-11-27T01:11:28.194Z,100765.23
2017-11-27T01:13:58.197Z,100784.33
2017-11-27T01:16:27.416Z,100796.16
2017-11-27T01:18:56.622Z,100796.98
2017-11-27T01:21:25.818Z,100789.59
2017-11-27T01:23:55.037Z,100793.91
2017-11-27T01:26:24.231Z,100791.22
2017-11-27T01:28:53.438Z,100789.05
2017-11-27T01:31:22.653Z,100789.88
2017-11-27T01:33:51.851Z,100785.02
2017-11-27T01:36:21.076Z,100776.14
2017-11-27T01:38:51.052Z,100790.67
2017-11-27T01:41:20.259Z,100790.23
2017-11-27T01:43:49.583Z,100795.64
2017-11-27T01:46:18.837Z,100794.83
2017-11-27T01:48:48.029Z,100785.70
2017-11-27T01:51:17.334Z,100779.68
2017-11-27T01:53:46.523Z,100786.80
2017-11-27T01:56:15.731Z,100775.23
2017-11-27T01:58:44.974Z,100776.17
2017-11-27T02:01:14.939Z,100772.00
2017-11-27T02:03:44.169Z,100770.92
2017-11-27T02:06:13.530Z,100766.64
2017-11-27T02:08:42.768Z,100768.00
2017-11-27T02:11:11.969Z,100761.25
2017-11-27T02:13:41.241Z,100755.34
2017-11-27T02:16:10.460Z,100761.27
2017-11-27T02:18:39.741Z,100749.42
2017-11-27T02:21:08.953Z,100752.37
2017-11-27T02:23:38.142Z,100752.00
2017-11-27T02:26:07.357Z,100754.54
2017-11-27T02:28:36.547Z,100756.05
2017-11-27T02:31:05.790Z,100750.91
2017-11-27T02:33:34.996Z,100752.41
2017-11-27T02:36:04.228Z,100747.70
2017-11-27T02:38:33.513Z,100740.43
2017-11-27T02:41:02.715Z,100745.00
2017-11-27T02:43:31.928Z,100743.52
2017-11-27T02:46:01.246Z,100744.31
2017-11-27T02:48:30.484Z,100742.29
2017-11-27T02:50:59.706Z,100740.70
2017-11-27T02:53:28.937Z,100735.86
2017-11-27T02:55:58.143Z,100729.66
2017-11-27T02:58:27.348Z,100717.00
2017-11-27T03:00:57.310Z,100717.81
2017-11-27T03:03:26.553Z,100724.67
2017-11-27T03:05:55.737Z,100720.92
2017-11-27T03:08:24.927Z,100720.10
2017-11-27T03:10:54.141Z,100716.98
2017-11-27T03:13:23.359Z,100713.23
2017-11-27T03:15:53.332Z,100717.54
2017-11-27T03:18:22.518Z,100714.03
2017-11-27T03:20:51.765Z,100706.92
2017-11-27T03:23:21.047Z,100702.59
2017-11-27T03:25:50.253Z,100706.22
2017-11-27T03:28:20.218Z,100709.19
2017-11-27T03:30:49.439Z,100706.09
2017-11-27T03:33:18.631Z,100701.26
2017-11-27T03:35:48.618Z,100700.17
2017-11-27T03:38:17.812Z,100695.45
2017-11-27T03:40:47.172Z,100686.85
2017-11-27T03:43:17.237Z,100688.88
2017-11-27T03:45:46.478Z,100685.10
2017-11-27T03:48:15.653Z,100691.45
2017-11-27T03:50:44.885Z,100674.07
2017-11-27T03:53:14.888Z,100676.09
2017-11-27T03:55:44.084Z,100680.14
2017-11-27T03:58:13.308Z,100666.27
2017-11-27T04:00:42.521Z,100666.55
2017-11-27T04:03:11.777Z,100669.49
2017-11-27T04:05:41.034Z,100670.98
2017-11-27T04:08:10.353Z,100665.59
2017-11-27T04:10:39.546Z,100662.23
2017-11-27T04:13:08.775Z,100650.66
2017-11-27T04:15:37.970Z,100646.77
2017-11-27T04:18:07.146Z,100641.11
2017-11-27T04:20:36.360Z,100635.70
2017-11-27T04:23:05.573Z,100635.02
2017-11-27T04:25:34.782Z,100621.45
2017-11-27T04:28:04.741Z,100630.86
2017-11-27T04:30:34.013Z,100623.17
2017-11-27T04:33:03.221Z,100621.70
2017-11-27T04:35:32.445Z,100607.84
2017-11-27T04:38:01.688Z,100604.22
2017-11-27T04:40:31.791Z,100602.20
2017-11-27T04:43:01.753Z,100600.19
2017-11-27T04:45:30.961Z,100597.50
2017-11-27T04:48:00.145Z,100606.92
2017-11-27T04:50:29.353Z,100596.84
2017-11-27T04:52:58.565Z,100596.70
2017-11-27T04:55:27.769Z,100592.28
2017-11-27T04:57:57.233Z,100588.64
2017-11-27T05:00:26.474Z,100592.41
2017-11-27T05:02:55.797Z,100588.22
2017-11-27T05:05:25.897Z,100585.01
2017-11-27T05:07:55.168Z,100585.93
2017-11-27T05:10:24.385Z,100583.91
2017-11-27T05:12:53.650Z,100581.22
2017-11-27T05:15:22.897Z,100583.78
2017-11-27T05:17:52.077Z,100582.44
2017-11-27T05:20:21.357Z,100576.79
2017-11-27T05:22:50.544Z,100568.16
2017-11-27T05:25:19.881Z,100569.92
2017-11-27T05:27:49.075Z,100559.95
2017-11-27T05:30:18.277Z,100561.95
2017-11-27T05:32:48.631Z,100559.52
2017-11-27T05:35:18.596Z,100555.87
2017-11-27T05:37:47.819Z,100549.80
2017-11-27T05:40:17.033Z,100544.16
2017-11-27T05:42:46.298Z,100536.99
2017-11-27T05:45:16.364Z,100539.95
2017-11-27T05:47:46.406Z,100533.90
2017-11-27T05:50:15.627Z,100520.56
2017-11-27T05:52:44.860Z,100526.88
2017-11-27T05:55:14.829Z,100518.25
2017-11-27T05:57:44.037Z,100513.55
2017-11-27T06:00:13.238Z,100499.28
2017-11-27T06:02:42.457Z,100502.94
2017-11-27T06:05:11.761Z,100495.41
2017-11-27T06:07:41.017Z,100490.13
2017-11-27T06:10:10.205Z,100497.13
2017-11-27T06:12:39.403Z,100488.34
2017-11-27T06:15:08.633Z,100487.13
2017-11-27T06:17:37.837Z,100486.98
2017-11-27T06:20:07.078Z,100483.60
2017-11-27T06:22:36.267Z,100485.21
2017-11-27T06:25:05.531Z,100479.85
2017-11-27T06:27:34.721Z,100467.59
2017-11-27T06:30:03.960Z,100459.22
2017-11-27T06:32:33.913Z,100458.66
2017-11-27T06:35:03.124Z,100449.00
2017-11-27T06:37:33.119Z,100446.70
2017-11-27T06:40:02.319Z,100433.67
2017-11-27T06:42:31.610Z,100428.14
2017-11-27T06:45:00.805Z,100427.02
2017-11-27T06:47:30.004Z,100423.55
2017-11-27T06:49:59.222Z,100432.58
2017-11-27T06:52:28.436Z,100423.67
2017-11-27T06:54:57.633Z,100426.22
2017-11-27T06:57:26.836Z,100406.30
2017-11-27T06:59:56.028Z,100407.14
2017-11-27T07:02:25.223Z,100398.23
2017-11-27T07:04:54.417Z,100386.63
2017-11-27T07:07:23.629Z,100391.72
2017-11-27T07:09:52.982Z,100395.36
2017-11-27T07:12:22.921Z,100386.82
2017-11-27T07:14:52.122Z,100390.69
2017-11-27T07:17:21.411Z,100385.95
2017-11-27T07:19:50.641Z,100381.77
2017-11-27T07:22:19.836Z,100365.64
2017-11-27T07:24:49.054Z,100372.55
2017-11-27T07:27:19.015Z,100367.86
2017-11-27T07:29:48.244Z,100376.63
2017-11-27T07:32:17.434Z,100355.22
2017-11-27T07:34:46.658Z,100357.28
2017-11-27T07:37:22.036Z,100349.86
2017-11-27T07:39:51.236Z,100341.75
2017-11-27T07:42:20.439Z,100344.41
2017-11-27T07:44:49.637Z,100326.80
2017-11-27T07:47:18.882Z,100330.36
2017-11-27T07:49:48.844Z,100330.87
2017-11-27T07:52:18.872Z,100332.88
2017-11-27T07:54:48.829Z,100309.03
2017-11-27T07:57:18.097Z,100317.66
2017-11-27T07:59:48.060Z,100305.28
2017-11-27T08:02:18.112Z,100316.64
2017-11-27T08:04:48.081Z,100286.50
2017-11-27T08:07:17.514Z,100297.79
2017-11-27T08:09:46.706Z,100299.02
2017-11-27T08:12:15.984Z,100294.59
2017-11-27T08:14:45.952Z,100283.45
2017-11-27T08:17:15.198Z,100275.98
2017-11-27T08:19:44.371Z,100272.46
2017-11-27T08:22:13.774Z,100278.93
2017-11-27T08:24:42.979Z,100246.77
2017-11-27T08:27:12.175Z,100263.18
2017-11-27T08:29:41.492Z,100227.23
2017-11-27T08:32:11.474Z,100254.34
2017-11-27T08:34:40.692Z,100229.53
2017-11-27T08:37:09.881Z,100223.02
2017-11-27T08:39:39.090Z,100228.11
2017-11-27T08:42:08.311Z,100233.09
2017-11-27T08:44:37.571Z,100199.15
2017-11-27T08:47:06.780Z,100219.23
2017-11-27T09:02:31.204Z,100202.91
2017-11-27T09:05:00.414Z,100186.95
2017-11-27T09:07:29.620Z,100183.20
2017-11-27T09:09:58.821Z,100176.58
2017-11-27T09:12:28.072Z,100166.59
2017-11-27T09:14:57.279Z,100159.36
2017-11-27T09:17:26.492Z,100163.95
2017-11-27T09:19:55.683Z,100159.83
2017-11-27T09:22:24.972Z,100157.58
2017-11-27T09:24:54.143Z,100146.95
2017-11-27T09:27:23.404Z,100130.03
2017-11-27T09:29:52.650Z,100134.38
2017-11-27T09:32:21.848Z,100139.97
2017-11-27T09:34:51.078Z,100137.62
2017-11-27T09:37:20.237Z,100131.39
2017-11-27T09:39:49.455Z,100133.34
2017-11-27T09:42:18.644Z,100124.25
2017-11-27T09:44:47.860Z,100118.08
2017-11-27T09:47:17.066Z,100115.12
2017-11-27T09:49:46.279Z,100109.58
2017-11-27T09:52:15.485Z,100104.84
2017-11-27T09:54:44.658Z,100098.52
2017-11-27T09:57:13.858Z,100095.63
2017-11-27T09:59:43.085Z,100080.66
2017-11-27T10:02:12.283Z,100085.64
2017-11-27T10:04:41.527Z,100086.59
2017-11-27T10:07:11.545Z,100075.27
2017-11-27T10:09:41.671Z,100072.72
2017-11-27T10:12:10.853Z,100072.02
2017-11-27T10:14:40.085Z,100064.83
2017-11-27T10:17:09.301Z,100064.44
2017-11-27T10:19:38.518Z,100059.03
2017-11-27T10:22:08.496Z,100042.41
2017-11-27T10:24:37.703Z,100044.77
2017-11-27T10:27:06.918Z,100034.13
2017-11-27T10:29:36.897Z,100029.14
2017-11-27T10:32:06.095Z,100016.27
2017-11-27T10:34:36.102Z,100013.18
2017-11-27T10:37:05.317Z,100004.86
2017-11-27T10:39:34.492Z,100004.75
2017-11-27T10:42:03.694Z,99996.53
2017-11-27T10:44:32.908Z,99998.48
2017-11-27T10:47:02.140Z,99994.98
2017-11-27T10:49:31.369Z,99980.97
2017-11-27T10:52:01.303Z,99976.67
2017-11-27T10:54:30.501Z,99967.50
2017-11-27T10:56:59.697Z,99970.94
2017-11-27T10:59:28.904Z,99967.70
2017-11-27T11:01:58.147Z,99955.02
2017-11-27T11:04:28.111Z,99953.58
2017-11-27T11:06:57.516Z,99942.09
2017-11-27T11:09:26.796Z,99942.52
2017-11-27T11:11:56.760Z,99931.59
2017-11-27T11:14:26.097Z,99914.91
2017-11-27T11:16:55.259Z,99909.36
2017-11-27T11:19:25.242Z,99900.80
2017-11-27T11:21:55.316Z,99893.76
2017-11-27T11:24:25.285Z,99880.28
2017-11-27T11:26:55.229Z,99874.56
2017-11-27T11:29:24.447Z,99864.05
2017-11-27T11:31:53.653Z,99855.27
2017-11-27T11:34:22.884Z,99837.41
2017-11-27T11:36:52.096Z,99834.63
2017-11-27T11:39:21.313Z,99831.87
2017-11-27T11:41:50.501Z,99807.91
2017-11-27T11:44:19.700Z,99803.72
2017-11-27T11:46:48.893Z,99798.23
2017-11-27T11:49:18.134Z,99809.02
2017-11-27T11:51:47.340Z,99796.34
2017-11-27T11:54:17.458Z,99808.01
2017-11-27T11:56:46.648Z,99793.39
2017-11-27T11:59:16.637Z,99786.44
2017-11-27T12:01:45.824Z,99782.84
2017-11-27T12:04:15.806Z,99780.70
2017-11-27T12:06:45.010Z,99768.02
2017-11-27T12:09:14.223Z,99777.92
2017-11-27T12:11:43.432Z,99784.66
2017-11-27T12:14:12.619Z,99769.92
2017-11-27T12:16:41.861Z,99747.16
2017-11-27T12:19:11.838Z,99755.49
2017-11-27T12:21:41.047Z,99741.62
2017-11-27T12:24:10.231Z,99750.19
2017-11-27T12:26:39.450Z,99741.64
2017-11-27T12:29:09.464Z,99740.60
2017-11-27T12:31:39.426Z,99726.33
2017-11-27T12:34:08.605Z,99726.72
2017-11-27T12:36:37.923Z,99724.33
2017-11-27T12:39:07.173Z,99710.13
2017-11-27T12:41:36.433Z,99708.12
2017-11-27T12:44:06.393Z,99702.98
2017-11-27T12:46:36.553Z,99697.13
2017-11-27T12:49:05.761Z,99694.39
2017-11-27T12:51:34.949Z,99691.22
2017-11-27T12:54:04.226Z,99694.08
2017-11-27T12:56:33.425Z,99678.45
2017-11-27T12:59:02.648Z,99679.64
2017-11-27T13:01:31.838Z,99673.63
2017-11-27T13:04:01.083Z,99652.88
2017-11-27T13:06:30.280Z,99669.45
2017-11-27T13:09:00.276Z,99675.09
2017-11-27T13:11:29.454Z,99673.87
2017-11-27T13:13:58.660Z,99661.33
2017-11-27T13:16:27.845Z,99659.59
2017-11-27T13:18:57.071Z,99664.88
2017-11-27T13:21:26.259Z,99666.56
2017-11-27T13:23:56.205Z,99660.72
2017-11-27T13:26:26.136Z,99661.28
2017-11-27T13:28:55.362Z,99645.80
2017-11-27T13:31:24.543Z,99655.09
2017-11-27T13:33:53.749Z,99650.73
2017-11-27T13:36:22.935Z,99635.81
2017-11-27T13:38:52.152Z,99642.24
2017-11-27T13:41:21.345Z,99632.00
2017-11-27T13:43:51.326Z,99631.13
2017-11-27T13:46:21.318Z,99617.75
2017-11-27T13:48:50.548Z,99614.31
2017-11-27T13:51:19.744Z,99609.31
2017-11-27T13:53:48.956Z,99610.50
2017-11-27T13:56:18.148Z,99590.02
2017-11-27T13:58:47.356Z,99595.50
2017-11-27T14:01:16.580Z,99593.98
2017-11-27T14:03:45.754Z,99580.89
2017-11-27T14:06:14.989Z,99582.88
2017-11-27T14:08:44.199Z,99578.95
2017-11-27T14:11:13.390Z,99570.61
2017-11-27T14:13:42.581Z,99568.39
2017-11-27T14:16:11.865Z,99571.33
2017-11-27T14:18:41.069Z,99563.27
2017-11-27T14:21:10.321Z,99561.59
2017-11-27T14:23:39.512Z,99559.22
2017-11-27T14:26:09.520Z,99568.42
2017-11-27T14:28:39.503Z,99570.41
2017-11-27T14:31:09.754Z,99568.42
2017-11-27T14:33:39.700Z,99567.27
2017-11-27T14:36:08.925Z,99569.17
2017-11-27T14:38:38.115Z,99564.84
2017-11-27T14:41:07.331Z,99565.63
2017-11-27T14:43:36.537Z,99570.16
2017-11-27T14:46:05.715Z,99575.34
2017-11-27T14:48:34.906Z,99573.84
2017-11-27T14:51:04.108Z,99571.53
2017-11-27T14:53:33.285Z,99569.31
2017-11-27T14:56:03.263Z,99551.47
2017-11-27T14:58:33.339Z,99550.75
2017-11-27T15:01:02.521Z,99573.15
2017-11-27T15:03:31.777Z,99560.28
2017-11-27T15:06:01.756Z,99554.11
2017-11-27T15:08:30.962Z,99550.48
2017-11-27T15:11:00.149Z,99548.89
2017-11-27T15:13:29.342Z,99553.58
2017-11-27T15:15:58.590Z,99545.63
2017-11-27T15:18:38.264Z,99547.86
2017-11-27T15:21:09.918Z,99549.54
2017-11-27T15:23:39.892Z,99537.49
2017-11-27T15:26:09.840Z,99543.13
2017-11-27T15:28:41.623Z,99545.51
2017-11-27T15:31:10.982Z,99532.72
2017-11-27T15:33:40.192Z,99532.72
2017-11-27T15:36:09.410Z,99526.67
2017-11-27T15:38:40.177Z,99530.44
2017-11-27T15:41:11.107Z,99528.20
2017-11-27T15:43:40.292Z,99527.80
2017-11-27T15:46:09.501Z,99531.55
2017-11-27T15:48:38.700Z,99526.94
2017-11-27T15:51:07.963Z,99520.83
2017-11-27T15:53:37.164Z,99519.89
2017-11-27T15:56:06.362Z,99511.63
2017-11-27T15:58:35.599Z,99508.36
2017-11-27T16:01:04.785Z,99512.58
2017-11-27T16:03:33.967Z,99507.78
2017-11-27T16:06:03.165Z,99510.75
2017-11-27T16:08:32.364Z,99504.69
2017-11-27T16:11:01.601Z,99504.95
2017-11-27T16:13:30.779Z,99500.25
2017-11-27T16:16:00.014Z,99498.18
2017-11-27T16:18:29.221Z,99493.02
2017-11-27T16:20:58.463Z,99489.84
2017-11-27T16:23:27.650Z,99480.92
2017-11-27T16:25:56.885Z,99484.66
2017-11-27T16:28:26.932Z,99485.88
2017-11-27T16:30:56.138Z,99472.98
2017-11-27T16:33:25.520Z,99477.27
2017-11-27T16:35:54.825Z,99479.20
2017-11-27T16:38:24.048Z,99466.95
2017-11-27T16:40:53.290Z,99464.48
2017-11-27T16:43:22.487Z,99467.18
2017-11-27T16:45:51.721Z,99457.95
2017-11-27T16:48:20.905Z,99449.36
2017-11-27T16:50:50.091Z,99457.15
2017-11-27T16:53:20.056Z,99441.59
2017-11-27T16:55:49.270Z,99438.95
2017-11-27T16:58:18.497Z,99442.53
2017-11-27T17:00:47.691Z,99436.97
2017-11-27T17:03:16.977Z,99440.33
2017-11-27T17:05:47.012Z,99435.70
2017-11-27T17:08:16.208Z,99441.11
2017-11-27T17:10:46.423Z,99429.03
2017-11-27T17:13:16.402Z,99424.45
2017-11-27T17:15:45.689Z,99421.50
2017-11-27T17:18:14.901Z,99416.25
2017-11-27T17:20:44.157Z,99409.48
2017-11-27T17:23:13.423Z,99412.13
2017-11-27T17:25:42.633Z,99418.08
2017-11-27T17:28:12.617Z,99413.16
2017-11-27T17:30:41.801Z,99408.55
2017-11-27T17:33:11.017Z,99398.78
2017-11-27T17:35:40.219Z,99404.35
2017-11-27T17:38:09.426Z,99398.55
2017-11-27T17:40:39.719Z,99405.55
2017-11-27T17:43:08.991Z,99398.80
2017-11-27T17:45:38.264Z,99397.35
2017-11-27T17:48:08.223Z,99402.59
2017-11-27T17:50:37.456Z,99392.91
2017-11-27T17:53:07.456Z,99397.42
2017-11-27T17:55:36.690Z,99395.35
2017-11-27T17:58:06.669Z,99387.25
2017-11-27T18:00:35.869Z,99386.70
2017-11-27T18:03:05.158Z,99389.39
2017-11-27T18:05:34.437Z,99372.73
2017-11-27T18:08:03.699Z,99375.34
2017-11-27T18:10:32.917Z,99368.05
2017-11-27T18:13:02.173Z,99371.05
2017-11-27T18:15:31.414Z,99363.73
2017-11-27T18:18:00.667Z,99368.52
2017-11-27T18:20:29.825Z,99369.05
2017-11-27T18:22:59.007Z,99379.41
2017-11-27T18:25:28.202Z,99368.59
2017-11-27T18:27:57.417Z,99367.31
2017-11-27T18:30:26.704Z,99366.20
2017-11-27T18:32:55.886Z,99364.43
2017-11-27T18:35:25.879Z,99355.86
2017-11-27T18:37:55.077Z,99362.84
2017-11-27T18:40:24.284Z,99365.09
2017-11-27T18:42:54.280Z,99361.96
2017-11-27T18:45:23.544Z,99363.09
2017-11-27T19:00:52.786Z,99351.28
2017-11-27T19:03:22.756Z,99333.08
2017-11-27T19:05:51.965Z,99339.84
2017-11-27T19:08:21.192Z,99332.50
2017-11-27T19:10:51.218Z,99334.58
2017-11-27T19:13:20.432Z,99332.80
2017-11-27T19:15:49.633Z,99332.58
2017-11-27T19:18:18.868Z,99336.46
2017-11-27T19:20:48.087Z,99321.83
2017-11-27T19:23:17.324Z,99314.59
2017-11-27T19:25:46.546Z,99317.84
2017-11-27T19:28:15.762Z,99315.14
2017-11-27T19:30:44.950Z,99307.99
2017-11-27T19:33:14.182Z,99313.16
2017-11-27T19:35:43.421Z,99305.30
2017-11-27T19:38:13.361Z,99304.96
2017-11-27T19:40:44.125Z,99311.16
2017-11-27T19:43:13.352Z,99292.64
2017-11-27T19:45:42.638Z,99313.92
2017-11-27T19:48:11.835Z,99316.39
2017-11-27T19:50:41.053Z,99322.09
2017-11-27T19:53:10.292Z,99328.76
2017-11-27T19:55:39.526Z,99314.78
2017-11-27T19:58:08.784Z,99316.69
2017-11-27T20:00:38.194Z,99326.05
2017-11-27T20:03:07.385Z,99312.14
2017-11-27T20:05:36.633Z,99324.30
2017-11-27T20:08:05.857Z,99311.81
2017-11-27T20:10:35.153Z,99314.28
2017-11-27T20:13:04.433Z,99319.75
2017-11-27T20:15:33.668Z,99308.28
2017-11-27T20:18:02.893Z,99311.86
2017-11-27T20:20:32.842Z,99311.44
2017-11-27T20:23:02.226Z,99312.78
2017-11-27T20:25:32.203Z,99313.18
2017-11-27T20:28:01.535Z,99312.62
2017-11-27T20:30:31.603Z,99308.33
2017-11-27T20:33:00.841Z,99317.16
2017-11-27T20:35:30.805Z,99310.47
2017-11-27T20:38:00.061Z,99309.22
2017-11-27T20:40:29.278Z,99313.67
2017-11-27T20:42:58.520Z,99321.33
2017-11-27T20:45:27.809Z,99311.64
2017-11-27T20:47:57.303Z,99304.53
2017-11-27T20:50:26.475Z,99291.17
2017-11-27T20:52:55.730Z,99294.17
2017-11-27T20:55:25.786Z,99289.73
2017-11-27T20:57:55.019Z,99291.91
2017-11-27T21:00:24.300Z,99283.80
2017-11-27T21:02:53.542Z,99278.11
2017-11-27T21:05:22.718Z,99275.86
2017-11-27T21:07:51.961Z,99268.55
2017-11-27T21:10:21.145Z,99271.14
2017-11-27T21:12:50.354Z,99270.52
2017-11-27T21:15:19.547Z,99269.80
2017-11-27T21:17:48.763Z,99275.92
2017-11-27T21:20:18.002Z,99252.48
2017-11-27T21:22:47.501Z,99248.11
2017-11-27T21:25:16.714Z,99237.34
2017-11-27T21:27:45.939Z,99235.16
2017-11-27T21:30:15.944Z,99228.58
2017-11-27T21:32:46.093Z,99226.59
2017-11-27T21:35:15.304Z,99227.61
2017-11-27T21:37:44.545Z,99229.97
2017-11-27T21:40:13.773Z,99224.86
2017-11-27T21:42:43.753Z,99231.89
2017-11-27T21:45:13.083Z,99218.72
2017-11-27T21:47:42.426Z,99219.00
2017-11-27T21:50:13.260Z,99213.13
2017-11-27T21:52:42.662Z,99213.04
2017-11-27T21:55:12.794Z,99212.01
2017-11-27T21:57:41.992Z,99209.14
2017-11-27T22:00:11.215Z,99263.59
2017-11-27T22:02:40.422Z,99253.03
2017-11-27T22:05:09.621Z,99269.72
2017-11-27T22:07:38.845Z,99270.30
2017-11-27T22:10:08.084Z,99271.48
2017-11-27T22:12:37.369Z,99273.97
2017-11-27T22:15:06.624Z,99279.13
2017-11-27T22:17:36.584Z,99282.78
2017-11-27T22:20:06.012Z,99287.36
2017-11-27T22:22:35.200Z,99285.08
2017-11-27T22:25:04.424Z,99286.52
2017-11-27T22:27:33.744Z,99281.35
2017-11-27T22:30:03.704Z,99277.85
2017-11-27T22:32:32.918Z,99279.20
2017-11-27T22:35:02.924Z,99272.77
2017-11-27T22:37:32.128Z,99272.36
2017-11-27T22:40:01.341Z,99283.25
2017-11-27T22:42:30.529Z,99275.00
2017-11-27T22:44:59.719Z,99273.48
2017-11-27T22:47:28.912Z,99264.28
2017-11-27T22:49:58.102Z,99269.20
2017-11-27T22:52:27.312Z,99251.50
2017-11-27T22:54:56.496Z,99259.05
2017-11-27T22:57:25.707Z,99250.62
2017-11-27T22:59:54.870Z,99255.23
2017-11-27T23:02:24.069Z,99252.63
2017-11-27T23:04:53.245Z,99257.92
2017-11-27T23:07:22.466Z,99254.20
2017-11-27T23:09:51.658Z,99262.45
2017-11-27T23:12:20.859Z,99258.34
2017-11-27T23:14:50.044Z,99268.00
2017-11-27T23:17:19.225Z,99265.30
2017-11-27T23:19:49.181Z,99275.86
2017-11-27T23:22:18.380Z,99272.52
2017-11-27T23:24:47.600Z,99273.02
2017-11-27T23:27:16.791Z,99267.77
2017-11-27T23:29:46.002Z,99268.81
2017-11-27T23:32:15.188Z,99267.14
2017-11-27T23:34:44.390Z,99267.38
2017-11-27T23:37:13.597Z,99264.28
2017-11-27T23:39:42.802Z,99269.60
2017-11-27T23:42:12.012Z,99266.50
2017-11-27T23:44:41.964Z,99269.83
2017-11-27T23:47:11.153Z,99262.20
2017-11-27T23:49:40.349Z,99266.66
2017-11-27T23:52:09.517Z,99258.95
2017-11-27T23:54:39.461Z,99260.86
2017-11-27T23:57:08.676Z,99257.22
2017-11-27T23:59:37.874Z,99253.08
